createdAt,value
2018-09-12T00:01:01.300Z,56.80
2018-09-12T00:03:30.662Z,56.90
2018-09-12T00:05:59.724Z,57.20
2018-09-12T00:08:28.960Z,57.30
2018-09-12T00:10:58.084Z,57.40
2018-09-12T00:13:27.305Z,57.60
2018-09-12T00:16:03.000Z,57.80
2018-09-12T00:18:32.268Z,57.80
2018-09-12T00:21:01.400Z,58.00
2018-09-12T00:23:30.672Z,58.00
2018-09-12T00:26:00.022Z,58.00
2018-09-12T00:28:29.373Z,58.10
2018-09-12T00:30:58.523Z,58.20
2018-09-12T00:33:27.857Z,58.20
2018-09-12T00:35:56.929Z,58.10
2018-09-12T00:38:26.077Z,58.20
2018-09-12T00:40:55.126Z,58.30
2018-09-12T00:43:24.248Z,58.30
2018-09-12T00:45:53.516Z,58.30
2018-09-12T00:48:22.646Z,58.30
2018-09-12T00:50:51.851Z,58.30
2018-09-12T00:53:21.068Z,58.40
2018-09-12T00:55:50.476Z,58.40
2018-09-12T00:58:19.694Z,58.50
2018-09-12T01:00:49.073Z,58.50
2018-09-12T01:03:18.256Z,58.60
2018-09-12T01:05:47.500Z,58.60
2018-09-12T01:08:16.704Z,58.80
2018-09-12T01:10:45.916Z,58.70
2018-09-12T01:13:16.374Z,58.70
2018-09-12T01:15:45.872Z,58.60
2018-09-12T01:18:20.712Z,58.60
2018-09-12T01:20:52.250Z,58.70
2018-09-12T01:23:21.874Z,58.80
2018-09-12T01:25:51.282Z,58.90
2018-09-12T01:28:20.414Z,58.90
2018-09-12T01:30:49.541Z,59.00
2018-09-12T01:33:18.625Z,59.10
2018-09-12T01:35:48.185Z,59.10
2018-09-12T01:38:17.342Z,59.10
2018-09-12T01:40:46.512Z,59.20
2018-09-12T01:43:15.599Z,59.30
2018-09-12T01:45:45.419Z,59.50
2018-09-12T01:48:15.485Z,59.50
2018-09-12T01:50:44.519Z,59.50
2018-09-12T01:53:13.617Z,59.60
2018-09-12T01:55:42.687Z,59.60
2018-09-12T01:58:11.766Z,59.60
2018-09-12T02:00:42.078Z,59.60
2018-09-12T02:03:11.642Z,59.50
2018-09-12T02:05:40.732Z,59.40
2018-09-12T02:08:09.948Z,59.40
2018-09-12T02:10:39.116Z,59.40
2018-09-12T02:13:08.287Z,59.30
2018-09-12T02:15:37.373Z,59.40
2018-09-12T02:18:06.589Z,59.40
2018-09-12T02:20:35.776Z,59.50
2018-09-12T02:23:04.858Z,59.60
2018-09-12T02:25:34.064Z,59.40
2018-09-12T02:28:03.198Z,59.60
2018-09-12T02:30:32.367Z,59.50
2018-09-12T02:33:01.498Z,59.80
2018-09-12T02:35:30.657Z,59.90
2018-09-12T02:37:59.842Z,59.90
2018-09-12T02:40:29.157Z,60.10
2018-09-12T02:42:58.489Z,60.30
2018-09-12T02:45:28.890Z,61.20
2018-09-12T02:47:58.071Z,60.50
2018-09-12T02:50:27.383Z,60.60
2018-09-12T02:52:56.579Z,60.50
2018-09-12T02:55:25.775Z,60.40
2018-09-12T02:57:54.926Z,60.30
2018-09-12T03:00:23.956Z,60.20
2018-09-12T03:02:53.058Z,60.30
2018-09-12T03:05:22.166Z,60.30
2018-09-12T03:07:51.301Z,60.20
2018-09-12T03:10:20.464Z,60.20
2018-09-12T03:12:49.747Z,60.10
2018-09-12T03:15:18.830Z,60.20
2018-09-12T03:17:48.004Z,60.30
2018-09-12T03:20:17.477Z,60.30
2018-09-12T03:22:46.699Z,60.30
2018-09-12T03:25:15.957Z,60.20
2018-09-12T03:27:45.173Z,60.20
2018-09-12T03:30:14.400Z,60.20
2018-09-12T03:32:43.553Z,60.20
2018-09-12T03:35:12.801Z,60.00
2018-09-12T03:37:42.019Z,59.90
2018-09-12T03:40:11.395Z,59.80
2018-09-12T03:42:40.466Z,59.90
2018-09-12T03:45:09.729Z,60.00
2018-09-12T03:47:38.997Z,60.30
2018-09-12T03:50:08.092Z,60.30
2018-09-12T03:52:37.208Z,60.40
2018-09-12T03:55:06.510Z,60.60
2018-09-12T03:57:35.520Z,60.60
2018-09-12T04:00:05.494Z,60.80
2018-09-12T04:02:34.981Z,60.90
2018-09-12T04:05:04.298Z,61.20
2018-09-12T04:07:33.540Z,61.40
2018-09-12T04:10:02.826Z,61.60
2018-09-12T04:12:31.890Z,62.00
2018-09-12T04:15:01.345Z,62.20
2018-09-12T04:17:34.559Z,62.50
2018-09-12T04:20:03.873Z,63.00
2018-09-12T04:22:33.490Z,63.40
2018-09-12T04:25:02.796Z,63.60
2018-09-12T04:27:31.917Z,63.90
2018-09-12T04:30:01.090Z,64.10
2018-09-12T04:32:30.619Z,64.20
2018-09-12T04:34:59.795Z,64.20
2018-09-12T04:37:28.929Z,64.20
2018-09-12T04:39:58.171Z,64.20
2018-09-12T04:42:27.243Z,64.30
2018-09-12T04:44:56.416Z,64.20
2018-09-12T04:47:25.520Z,64.10
2018-09-12T04:49:54.713Z,64.10
2018-09-12T04:52:23.885Z,63.90
2018-09-12T04:54:53.204Z,63.80
2018-09-12T04:57:22.498Z,63.80
2018-09-12T04:59:51.795Z,63.80
2018-09-12T05:02:21.089Z,63.60
2018-09-12T05:04:50.212Z,63.50
2018-09-12T05:07:19.213Z,63.60
2018-09-12T05:09:48.369Z,63.30
2018-09-12T05:12:17.508Z,63.10
2018-09-12T05:14:46.600Z,63.00
2018-09-12T05:17:15.742Z,62.80
2018-09-12T05:19:45.030Z,62.60
2018-09-12T05:22:14.565Z,62.50
2018-09-12T05:24:43.686Z,62.50
2018-09-12T05:27:12.990Z,62.20
2018-09-12T05:29:42.583Z,61.70
2018-09-12T05:59:14.851Z,61.00
2018-09-12T06:01:44.188Z,58.70
2018-09-12T06:04:13.507Z,58.60
2018-09-12T06:06:42.703Z,58.50
2018-09-12T06:09:12.058Z,58.40
2018-09-12T06:11:41.312Z,58.40
2018-09-12T06:14:10.696Z,58.20
2018-09-12T06:17:05.487Z,58.00
2018-09-12T06:19:34.675Z,58.00
2018-09-12T06:22:04.879Z,57.70
2018-09-12T06:24:34.272Z,57.60
2018-09-12T06:27:03.665Z,57.50
2018-09-12T06:29:32.741Z,57.30
2018-09-12T06:32:01.814Z,57.30
2018-09-12T06:34:42.270Z,57.10
2018-09-12T06:37:13.691Z,57.60
2018-09-12T06:39:45.919Z,56.80
2018-09-12T06:42:14.969Z,56.60
2018-09-12T06:44:44.217Z,56.40
2018-09-12T06:47:14.254Z,56.20
2018-09-12T06:49:47.110Z,56.10
2018-09-12T06:52:18.343Z,55.70
2018-09-12T06:54:47.683Z,55.50
2018-09-12T06:57:16.889Z,55.00
2018-09-12T06:59:46.139Z,54.00
2018-09-12T07:02:15.320Z,50.40
2018-09-12T07:04:45.095Z,46.90
2018-09-12T07:07:14.449Z,43.30
2018-09-12T07:09:43.558Z,43.30
2018-09-12T07:12:12.659Z,42.50
2018-09-12T07:14:41.815Z,41.90
2018-09-12T07:17:11.119Z,41.80
2018-09-12T07:19:40.419Z,41.10
2018-09-12T07:22:09.949Z,40.50
2018-09-12T07:24:39.096Z,40.80
2018-09-12T07:27:17.888Z,41.00
2018-09-12T07:29:48.207Z,40.50
2018-09-12T07:32:18.043Z,39.60
2018-09-12T07:34:47.193Z,39.80
2018-09-12T07:37:16.935Z,38.70
2018-09-12T07:39:47.167Z,38.60
2018-09-12T07:42:16.294Z,37.30
2018-09-12T07:44:45.328Z,38.00
2018-09-12T07:47:14.468Z,39.70
2018-09-12T07:49:43.702Z,40.50
2018-09-12T07:52:14.843Z,39.40
2018-09-12T07:54:43.943Z,38.80
2018-09-12T07:57:13.053Z,38.70
2018-09-12T07:59:42.137Z,38.60
2018-09-12T08:02:11.345Z,38.00
2018-09-12T08:04:41.452Z,37.10
2018-09-12T08:07:10.930Z,37.70
2018-09-12T08:09:41.388Z,38.30
2018-09-12T08:12:11.377Z,38.40
2018-09-12T08:14:40.723Z,41.20
2018-09-12T08:17:10.353Z,43.00
2018-09-12T08:19:40.992Z,44.30
2018-09-12T08:25:00.989Z,45.10
2018-09-12T08:27:32.311Z,45.90
2018-09-12T08:30:03.846Z,46.50
2018-09-12T08:32:37.455Z,46.50
2018-09-12T08:35:09.000Z,46.70
2018-09-12T08:37:40.159Z,46.10
2018-09-12T08:40:17.236Z,45.50
2018-09-12T08:42:47.634Z,45.60
2018-09-12T08:45:20.674Z,45.20
2018-09-12T08:47:51.097Z,45.40
2018-09-12T08:50:23.728Z,46.10
2018-09-12T08:52:55.350Z,46.00
2018-09-12T08:55:24.629Z,46.80
2018-09-12T08:57:54.373Z,46.90
2018-09-12T09:00:27.787Z,47.10
2018-09-12T09:02:56.732Z,46.50
2018-09-12T09:05:25.759Z,45.40
2018-09-12T09:07:54.729Z,44.70
2018-09-12T09:10:23.847Z,44.60
2018-09-12T09:12:53.293Z,45.10
2018-09-12T09:15:22.323Z,45.30
2018-09-12T09:17:51.437Z,45.00
2018-09-12T09:20:22.923Z,43.70
2018-09-12T09:22:52.111Z,44.30
2018-09-12T09:25:22.009Z,43.70
2018-09-12T09:27:51.159Z,43.90
2018-09-12T09:30:20.131Z,43.50
2018-09-12T09:32:49.368Z,44.30
2018-09-12T09:35:18.447Z,45.00
2018-09-12T09:37:47.384Z,45.00
2018-09-12T09:40:16.412Z,44.80
2018-09-12T09:42:45.467Z,45.30
2018-09-12T09:45:14.567Z,47.30
2018-09-12T09:47:43.912Z,48.00
2018-09-12T09:50:12.926Z,48.60
2018-09-12T09:52:42.014Z,49.10
2018-09-12T09:55:11.296Z,50.00
2018-09-12T09:57:40.348Z,50.50
2018-09-12T10:00:15.550Z,50.40
2018-09-12T10:02:50.141Z,50.30
2018-09-12T10:05:29.266Z,50.20
2018-09-12T10:08:35.240Z,50.10
2018-09-12T10:11:04.320Z,48.00
2018-09-12T10:13:33.368Z,47.40
2018-09-12T10:16:02.524Z,46.30
2018-09-12T10:18:31.578Z,45.30
2018-09-12T10:21:00.536Z,45.20
2018-09-12T10:23:29.538Z,44.30
2018-09-12T10:25:58.628Z,42.80
2018-09-12T10:28:27.714Z,43.20
2018-09-12T10:30:56.742Z,44.10
2018-09-12T10:33:26.037Z,41.60
2018-09-12T10:35:55.234Z,40.50
2018-09-12T10:38:24.244Z,40.60
2018-09-12T10:40:53.236Z,41.10
2018-09-12T10:43:22.295Z,42.10
2018-09-12T10:45:51.335Z,42.50
2018-09-12T10:48:20.435Z,41.90
2018-09-12T10:50:49.551Z,41.50
2018-09-12T10:53:18.713Z,42.40
2018-09-12T10:55:47.741Z,43.10
2018-09-12T10:58:16.827Z,41.60
2018-09-12T11:00:45.822Z,40.90
2018-09-12T11:03:14.955Z,40.50
2018-09-12T11:05:44.081Z,40.60
2018-09-12T11:08:13.080Z,40.60
2018-09-12T11:10:42.090Z,40.30
2018-09-12T11:13:11.060Z,40.10
2018-09-12T11:15:40.692Z,41.60
2018-09-12T11:18:09.658Z,43.20
2018-09-12T11:20:38.674Z,42.90
2018-09-12T11:23:07.837Z,43.50
2018-09-12T11:25:37.098Z,42.60
2018-09-12T11:28:06.116Z,41.00
2018-09-12T11:30:35.127Z,39.50
2018-09-12T11:33:04.160Z,38.90
2018-09-12T11:35:33.323Z,39.30
2018-09-12T11:38:02.605Z,41.40
2018-09-12T11:40:31.597Z,42.60
2018-09-12T11:43:00.758Z,42.70
2018-09-12T11:45:29.817Z,41.70
2018-09-12T11:47:58.890Z,40.40
2018-09-12T11:50:28.421Z,39.30
2018-09-12T11:52:57.369Z,37.70
2018-09-12T11:55:26.591Z,36.10
2018-09-12T11:57:55.701Z,36.70
2018-09-12T12:00:24.773Z,36.50
2018-09-12T12:03:00.497Z,35.90
2018-09-12T12:05:29.516Z,36.50
2018-09-12T12:07:58.515Z,37.30
2018-09-12T12:10:27.545Z,37.10
2018-09-12T12:12:56.656Z,36.60
2018-09-12T12:15:25.989Z,37.40
2018-09-12T12:17:55.584Z,36.10
2018-09-12T12:20:24.562Z,35.60
2018-09-12T12:22:53.660Z,35.60
2018-09-12T12:25:22.729Z,36.00
2018-09-12T12:27:51.730Z,35.20
2018-09-12T12:30:20.688Z,34.60
2018-09-12T12:32:50.032Z,35.60
2018-09-12T12:35:19.306Z,33.60
2018-09-12T12:37:48.281Z,34.50
2018-09-12T12:40:17.603Z,34.00
2018-09-12T12:42:46.749Z,34.60
2018-09-12T12:45:16.134Z,36.70
2018-09-12T12:47:45.206Z,38.90
2018-09-12T12:50:14.215Z,38.90
2018-09-12T12:52:43.241Z,39.80
2018-09-12T12:55:12.289Z,38.80
2018-09-12T12:57:41.253Z,37.80
2018-09-12T13:00:10.225Z,37.00
2018-09-12T13:02:39.291Z,36.70
2018-09-12T13:05:08.517Z,36.70
2018-09-12T13:07:37.506Z,35.90
2018-09-12T13:10:06.579Z,34.60
2018-09-12T13:12:35.700Z,35.00
2018-09-12T13:15:04.976Z,35.30
2018-09-12T13:17:34.094Z,36.60
2018-09-12T13:20:03.089Z,38.60
2018-09-12T13:22:32.076Z,39.10
2018-09-12T13:25:01.192Z,39.40
2018-09-12T13:27:36.590Z,38.60
2018-09-12T13:30:05.713Z,38.80
2018-09-12T13:32:34.887Z,39.70
2018-09-12T13:35:04.051Z,40.70
2018-09-12T13:37:33.070Z,41.70
2018-09-12T13:40:02.129Z,43.50
2018-09-12T13:42:32.040Z,44.00
2018-09-12T13:45:00.999Z,44.80
2018-09-12T13:47:30.036Z,44.60
2018-09-12T13:49:59.000Z,44.20
2018-09-12T13:52:27.960Z,43.30
2018-09-12T13:54:57.227Z,42.70
2018-09-12T13:57:26.325Z,42.70
2018-09-12T13:59:55.473Z,42.60
2018-09-12T14:02:24.602Z,41.90
2018-09-12T14:04:53.793Z,42.40
2018-09-12T14:07:23.233Z,42.70
2018-09-12T14:09:52.264Z,43.90
2018-09-12T14:12:21.263Z,44.20
2018-09-12T14:14:50.381Z,44.60
2018-09-12T14:17:19.791Z,44.80
2018-09-12T14:19:49.094Z,45.10
2018-09-12T14:22:18.130Z,45.00
2018-09-12T14:24:47.138Z,44.20
2018-09-12T14:27:16.540Z,44.60
2018-09-12T14:29:45.597Z,44.20
2018-09-12T14:32:14.693Z,44.30
2018-09-12T14:34:45.370Z,45.10
2018-09-12T14:37:14.422Z,45.30
2018-09-12T14:39:43.496Z,44.90
2018-09-12T14:42:12.586Z,44.70
2018-09-12T14:44:41.586Z,45.30
2018-09-12T14:47:11.627Z,46.70
2018-09-12T14:49:40.824Z,46.60
2018-09-12T14:52:09.952Z,47.20
2018-09-12T14:54:39.050Z,48.00
2018-09-12T14:57:08.105Z,48.30
2018-09-12T14:59:37.454Z,48.70
2018-09-12T15:02:06.621Z,48.70
2018-09-12T15:04:35.738Z,48.90
2018-09-12T15:07:04.892Z,49.40
2018-09-12T15:09:34.133Z,49.30
2018-09-12T15:12:03.215Z,49.40
2018-09-12T15:14:32.918Z,49.60
2018-09-12T15:17:02.083Z,49.60
2018-09-12T15:19:31.082Z,50.20
2018-09-12T15:22:01.414Z,50.50
2018-09-12T15:24:30.526Z,50.80
2018-09-12T15:27:01.105Z,51.40
2018-09-12T15:29:30.696Z,51.70
2018-09-12T15:32:00.924Z,52.40
2018-09-12T15:34:36.154Z,53.20
2018-09-12T15:37:05.612Z,53.60
2018-09-12T15:39:38.921Z,53.80
2018-09-12T15:42:08.851Z,54.00
2018-09-12T15:44:38.033Z,54.50
2018-09-12T15:47:10.812Z,54.50
2018-09-12T15:49:39.855Z,54.60
2018-09-12T15:52:11.057Z,54.90
2018-09-12T15:54:40.154Z,55.10
2018-09-12T15:57:10.043Z,55.70
2018-09-12T15:59:39.195Z,56.20
2018-09-12T16:02:08.343Z,56.40
2018-09-12T16:04:37.636Z,56.70
2018-09-12T16:07:06.854Z,56.70
2018-09-12T16:09:36.385Z,56.90
2018-09-12T16:12:05.525Z,57.80
2018-09-12T16:14:35.614Z,58.00
2018-09-12T16:17:04.659Z,58.20
2018-09-12T16:19:35.312Z,58.30
2018-09-12T16:22:04.784Z,58.80
2018-09-12T16:24:33.767Z,59.20
2018-09-12T16:27:02.803Z,59.60
2018-09-12T16:29:32.079Z,60.10
2018-09-12T16:32:01.200Z,60.70
2018-09-12T16:34:30.918Z,61.30
2018-09-12T16:37:01.924Z,62.00
2018-09-12T16:39:31.201Z,62.60
2018-09-12T16:42:01.056Z,62.70
2018-09-12T16:44:30.641Z,62.70
2018-09-12T16:46:59.796Z,62.90
2018-09-12T16:49:28.949Z,63.00
2018-09-12T16:51:57.946Z,63.30
2018-09-12T16:54:27.051Z,63.90
2018-09-12T16:56:56.216Z,64.20
2018-09-12T16:59:25.332Z,64.20
2018-09-12T17:01:54.782Z,64.10
2018-09-12T17:04:23.883Z,64.30
2018-09-12T17:06:53.196Z,64.80
2018-09-12T17:09:22.449Z,66.30
2018-09-12T17:11:51.501Z,65.80
2018-09-12T17:14:20.744Z,65.90
2018-09-12T17:16:49.938Z,66.60
2018-09-12T17:19:19.312Z,67.30
2018-09-12T17:21:51.886Z,67.60
2018-09-12T17:24:21.989Z,67.20
2018-09-12T17:26:54.177Z,67.20
2018-09-12T17:29:23.632Z,67.00
2018-09-12T17:31:57.081Z,67.10
2018-09-12T17:34:27.563Z,67.30
2018-09-12T17:36:57.521Z,67.30
2018-09-12T17:39:27.496Z,67.50
2018-09-12T17:41:56.680Z,67.40
2018-09-12T17:44:25.775Z,67.40
2018-09-12T17:46:55.028Z,67.50
2018-09-12T17:49:24.412Z,67.40
2018-09-12T17:51:54.406Z,67.20
2018-09-12T17:54:23.739Z,66.90
2018-09-12T17:56:52.842Z,67.00
2018-09-12T17:59:22.200Z,67.10
2018-09-12T18:01:52.290Z,67.00
2018-09-12T18:04:23.613Z,67.00
2018-09-12T18:06:53.691Z,66.90
2018-09-12T18:09:24.784Z,67.30
2018-09-12T18:11:54.511Z,67.20
2018-09-12T18:14:23.960Z,68.00
2018-09-12T18:16:53.644Z,68.20
2018-09-12T18:19:23.347Z,68.20
2018-09-12T18:21:52.927Z,68.40
2018-09-12T18:24:22.473Z,69.20
2018-09-12T18:26:52.644Z,69.90
2018-09-12T18:29:30.208Z,70.40
2018-09-12T18:32:00.045Z,70.30
2018-09-12T18:34:29.719Z,70.30
2018-09-12T18:37:01.827Z,69.90
2018-09-12T18:39:37.945Z,69.50
2018-09-12T18:42:10.479Z,70.20
2018-09-12T18:44:40.848Z,71.90
2018-09-12T18:47:11.042Z,71.80
2018-09-12T18:49:43.247Z,71.80
2018-09-12T18:52:14.993Z,71.80
2018-09-12T18:54:46.805Z,72.10
2018-09-12T19:00:05.152Z,73.00
2018-09-12T19:05:46.377Z,73.60
2018-09-12T19:08:36.008Z,73.70
2018-09-12T19:11:24.109Z,73.80
2018-09-12T19:14:15.286Z,72.80
2018-09-12T19:19:27.835Z,73.30
2018-09-12T19:25:46.549Z,73.60
2018-09-12T20:05:46.026Z,73.20
2018-09-12T20:08:17.901Z,74.00
2018-09-12T20:12:15.752Z,74.00
2018-09-12T20:15:35.508Z,74.20
2018-09-12T21:17:42.614Z,74.70
2018-09-12T21:20:14.743Z,77.40
2018-09-12T21:22:45.268Z,77.20
2018-09-12T21:25:18.324Z,77.30
2018-09-12T21:27:52.863Z,77.60
2018-09-12T21:30:25.348Z,77.70
2018-09-12T21:33:28.782Z,77.80
2018-09-12T21:38:23.919Z,77.50
2018-09-12T21:58:50.638Z,77.30
2018-09-12T22:01:56.897Z,77.40
2018-09-12T22:04:38.262Z,77.10
2018-09-12T22:07:34.213Z,77.10
2018-09-12T22:10:11.707Z,77.10
2018-09-12T22:15:44.803Z,77.30
2018-09-12T22:18:18.934Z,77.50
2018-09-12T22:23:25.231Z,76.80
2018-09-12T22:25:54.283Z,77.00
2018-09-12T22:28:24.163Z,76.50
2018-09-12T22:30:53.261Z,76.00
2018-09-12T22:33:23.445Z,76.10
2018-09-12T22:35:52.677Z,75.70
2018-09-12T22:38:22.058Z,75.70
2018-09-12T22:40:51.269Z,76.10
2018-09-12T22:43:22.577Z,76.00
2018-09-12T22:45:52.217Z,75.50
2018-09-12T22:48:21.615Z,75.10
2018-09-12T22:50:51.095Z,74.70
2018-09-12T22:53:20.158Z,74.20
2018-09-12T22:55:49.550Z,73.60
2018-09-12T22:58:18.870Z,73.10
2018-09-12T23:00:48.118Z,72.60
2018-09-12T23:03:17.343Z,72.00
2018-09-12T23:05:46.664Z,71.60
2018-09-12T23:08:15.913Z,71.60
2018-09-12T23:10:45.084Z,71.40
2018-09-12T23:13:14.352Z,72.30
2018-09-12T23:15:44.001Z,72.50
2018-09-12T23:18:13.471Z,72.80
2018-09-12T23:20:42.578Z,73.00
2018-09-12T23:23:11.728Z,73.00
2018-09-12T23:25:40.917Z,72.90
2018-09-12T23:28:10.137Z,72.70
2018-09-12T23:30:39.155Z,72.70
2018-09-12T23:33:08.453Z,72.80
2018-09-12T23:35:40.571Z,73.00
2018-09-12T23:38:09.735Z,72.60
2018-09-12T23:40:38.829Z,72.70
2018-09-12T23:43:08.215Z,72.10
2018-09-12T23:45:37.451Z,71.90
2018-09-12T23:48:06.529Z,72.00
2018-09-12T23:50:35.613Z,71.90
2018-09-12T23:53:05.918Z,72.10
2018-09-12T23:55:35.135Z,72.20
2018-09-12T23:58:04.153Z,72.20
